Time;durP1;ratioP1;P1;durP2;ratioP2;P2;SDS_P1;SDS_P2;PMS_P1;PMS_P2;Temp;Humidity;BMP_temperature;BMP_pressure;BME280_temperature;BME280_humidity;BME280_pressure;Samples;Min_cycle;Max_cycle;Signal;HPM_P1;HPM_P2
2022/06/16 00:01:44;;;;;;;9.07;3.17;;;16.00;97.50;;;;;;5103589;28;19923;-61
2022/06/16 00:04:10;;;;;;;;;;;15.90;97.80;;;;;;5105474;28;20044;-60
2022/06/16 00:06:35;;;;;;;6.47;3.38;;;15.90;98.20;;;;;;5104235;28;19974;-61
2022/06/16 00:09:01;;;;;;;;;;;15.80;98.00;;;;;;5104564;28;20116;-60
2022/06/16 00:11:28;;;;;;;6.82;3.35;;;15.70;98.40;;;;;;5103707;28;20015;-61
2022/06/16 00:13:53;;;;;;;5.00;2.75;;;15.70;98.20;;;;;;5104312;28;20504;-61
2022/06/16 00:16:19;;;;;;;;;;;15.70;97.30;;;;;;5104177;28;20093;-60
2022/06/16 00:18:45;;;;;;;6.13;3.00;;;15.60;97.90;;;;;;5091102;28;20352;-61
2022/06/16 00:21:11;;;;;;;;;;;15.60;98.80;;;;;;5089561;28;20036;-61
2022/06/16 00:23:37;;;;;;;5.45;3.10;;;15.60;99.00;;;;;;5090656;28;19920;-62
2022/06/16 00:26:03;;;;;;;10.02;3.25;;;15.50;98.70;;;;;;5089182;28;20040;-60
2022/06/16 00:28:29;;;;;;;;;;;15.50;99.20;;;;;;5087251;28;20135;-61
2022/06/16 00:31:04;;;;;;;5.00;3.50;;;15.40;99.20;;;;;;5087255;28;19920;-61
2022/06/16 00:33:30;;;;;;;5.80;3.42;;;15.30;99.20;;;;;;5089020;28;20460;-61
2022/06/16 00:35:56;;;;;;;6.30;3.60;;;15.30;99.50;;;;;;5089638;28;20039;-61
2022/06/16 00:38:23;;;;;;;;;;;15.30;99.30;;;;;;5089735;28;20554;-61
2022/06/16 00:40:48;;;;;;;4.18;3.28;;;15.30;99.40;;;;;;5089759;28;20687;-61
2022/06/16 00:43:14;;;;;;;;;;;15.20;99.80;;;;;;5090213;28;20071;-61
2022/06/16 00:45:56;;;;;;;5.72;3.42;;;15.20;99.90;;;;;;5085543;28;20010;-61
2022/06/16 00:48:29;;;;;;;7.43;3.58;;;15.20;99.90;;;;;;5089331;28;20035;-61
2022/06/16 00:51:00;;;;;;;5.55;3.60;;;15.10;99.90;;;;;;5088251;28;20186;-61
2022/06/16 00:53:28;;;;;;;5.78;3.15;;;15.10;99.90;;;;;;5089647;28;20726;-61
2022/06/16 00:55:54;;;;;;;5.00;3.63;;;15.10;99.80;;;;;;5088942;28;20044;-61
2022/06/16 00:58:22;;;;;;;4.95;3.15;;;15.00;99.80;;;;;;5088268;28;20055;-61
2022/06/16 01:00:50;;;;;;;4.32;3.50;;;14.90;99.90;;;;;;5087054;28;20036;-60
2022/06/16 01:06:18;;;;;;;6.95;3.30;;;14.90;99.90;;;;;;5069539;28;20036;-61
2022/06/16 01:08:45;;;;;;;6.18;3.03;;;14.90;99.80;;;;;;5089245;28;20122;-61
2022/06/16 01:15:11;;;;;;;5.88;3.92;;;14.80;99.80;;;;;;5086122;28;20063;-61
2022/06/16 01:17:47;;;;;;;6.75;3.30;;;14.80;99.90;;;;;;5057689;28;20511;-61
2022/06/16 01:20:33;;;;;;;4.18;3.25;;;14.70;99.90;;;;;;5088922;28;20044;-61
2022/06/16 01:23:24;;;;;;;10.10;3.95;;;14.70;99.90;;;;;;5089048;28;20515;-61
2022/06/16 01:26:06;;;;;;;8.55;3.85;;;14.70;99.90;;;;;;5089164;28;20563;-61
2022/06/16 01:28:52;;;;;;;5.47;3.60;;;14.60;99.90;;;;;;5073483;28;20052;-60
2022/06/16 01:31:21;;;;;;;9.73;4.38;;;14.60;99.90;;;;;;5072853;28;20032;-61
2022/06/16 01:34:12;;;;;;;9.05;3.90;;;14.50;99.90;;;;;;5089374;28;20036;-62
2022/06/16 01:37:14;;;;;;;11.90;3.63;;;14.50;99.90;;;;;;5088873;28;20075;-63
2022/06/16 01:39:58;;;;;;;5.93;3.53;;;14.50;99.90;;;;;;5069660;28;20036;-62
2022/06/16 01:42:31;;;;;;;6.35;3.58;;;14.50;99.90;;;;;;5082972;28;20063;-62
2022/06/16 01:45:15;;;;;;;4.40;3.25;;;14.40;99.90;;;;;;5084657;28;20130;-62
2022/06/16 01:47:47;;;;;;;17.95;3.70;;;14.30;99.90;;;;;;5088637;28;20052;-62
2022/06/16 01:50:20;;;;;;;8.30;4.40;;;14.30;99.90;;;;;;5088662;28;20043;-62
2022/06/16 01:52:57;;;;;;;6.90;3.42;;;14.30;99.90;;;;;;5082914;28;20618;-63
2022/06/16 01:55:29;;;;;;;6.80;3.17;;;14.30;99.90;;;;;;5083161;28;20047;-62
2022/06/16 01:58:21;;;;;;;6.13;3.15;;;14.30;99.90;;;;;;5074549;28;20040;-62
2022/06/16 02:00:50;;;;;;;8.80;3.80;;;14.20;99.90;;;;;;5085167;28;20036;-61
2022/06/16 02:03:28;;;;;;;5.97;3.90;;;14.10;99.90;;;;;;5088741;28;20202;-62
2022/06/16 02:06:23;;;;;;;7.50;3.60;;;14.10;99.90;;;;;;5068228;28;20104;-62
2022/06/16 02:08:56;;;;;;;4.55;3.67;;;14.10;99.90;;;;;;5078515;28;20168;-61
2022/06/16 02:11:32;;;;;;;6.97;3.67;;;14.10;99.90;;;;;;5088249;28;20047;-62
2022/06/16 02:14:30;;;;;;;8.50;3.63;;;14.10;99.90;;;;;;5088122;28;20072;-62
2022/06/16 02:16:56;;;;;;;7.68;4.45;;;14.10;99.90;;;;;;5087379;28;20077;-62
2022/06/16 02:19:23;;;;;;;;;;;14.00;99.90;;;;;;5089307;28;20051;-62
2022/06/16 02:21:50;;;;;;;7.32;3.80;;;13.90;99.90;;;;;;5087027;28;19920;-62
2022/06/16 02:24:19;;;;;;;8.68;3.55;;;13.90;99.90;;;;;;5088958;28;20096;-62
2022/06/16 02:26:45;;;;;;;7.88;3.72;;;13.80;99.90;;;;;;5086924;28;20048;-62
2022/06/16 02:29:30;;;;;;;6.05;3.60;;;13.70;99.90;;;;;;5083697;28;20067;-62
2022/06/16 02:32:31;;;;;;;5.07;3.85;;;13.70;99.90;;;;;;5087225;28;20048;-62
2022/06/16 02:35:07;;;;;;;8.48;3.65;;;13.60;99.90;;;;;;5087612;28;20082;-62
2022/06/16 02:37:43;;;;;;;9.48;3.10;;;13.60;99.90;;;;;;5087710;28;20044;-62
2022/06/16 02:40:39;;;;;;;5.63;3.10;;;13.50;99.90;;;;;;5087757;28;20056;-62
2022/06/16 02:43:42;;;;;;;8.32;3.97;;;13.50;99.90;;;;;;5087573;28;20674;-62
2022/06/16 02:46:39;;;;;;;6.18;3.20;;;13.60;99.90;;;;;;5086072;28;20044;-62
2022/06/16 02:49:07;;;;;;;5.20;3.45;;;13.60;99.90;;;;;;5087505;28;20040;-62
2022/06/16 02:51:45;;;;;;;4.82;3.08;;;13.60;99.90;;;;;;5087235;28;20036;-62
2022/06/16 02:54:22;;;;;;;5.10;3.85;;;13.50;99.90;;;;;;5087470;28;20036;-63
2022/06/16 02:57:03;;;;;;;6.78;3.40;;;13.40;99.90;;;;;;5070760;28;20120;-62
2022/06/16 02:59:34;;;;;;;7.80;3.67;;;13.30;99.90;;;;;;5078993;28;20415;-62
2022/06/16 03:02:03;;;;;;;5.57;3.60;;;13.30;99.90;;;;;;5086764;28;20040;-61
2022/06/16 03:04:38;;;;;;;6.35;3.75;;;13.20;99.90;;;;;;5087573;28;20114;-61
2022/06/16 03:07:04;;;;;;;9.18;3.70;;;13.10;99.90;;;;;;5087031;28;20605;-61
2022/06/16 03:09:30;;;;;;;;;;;13.20;99.90;;;;;;5088199;28;20792;-62
2022/06/16 03:11:56;;;;;;;12.93;3.45;;;13.30;99.90;;;;;;5086937;28;19919;-61
2022/06/16 03:14:21;;;;;;;;;;;13.30;99.90;;;;;;5088056;28;20032;-61
2022/06/16 03:16:47;;;;;;;5.32;3.30;;;13.30;99.90;;;;;;5087229;28;19920;-61
2022/06/16 03:19:12;;;;;;;;;;;13.30;99.90;;;;;;5087412;28;20067;-61
2022/06/16 03:21:38;;;;;;;6.97;3.95;;;13.30;99.90;;;;;;5087199;28;20430;-61
2022/06/16 03:24:03;;;;;;;;;;;13.20;99.90;;;;;;5083233;28;20043;-62
2022/06/16 03:26:29;;;;;;;4.55;3.53;;;13.20;99.90;;;;;;5087577;28;19927;-61
2022/06/16 03:28:55;;;;;;;;;;;13.30;99.90;;;;;;5082486;28;20115;-61
2022/06/16 03:31:21;;;;;;;5.10;3.75;;;13.30;99.90;;;;;;5083651;28;19916;-60
2022/06/16 03:33:47;;;;;;;;;;;13.30;99.90;;;;;;5087185;28;20051;-61
2022/06/16 03:36:13;;;;;;;7.57;3.42;;;13.30;99.90;;;;;;5087502;28;19927;-61
2022/06/16 03:38:42;;;;;;;7.55;3.58;;;13.30;99.90;;;;;;5088578;28;20044;-61
2022/06/16 03:41:08;;;;;;;6.32;3.80;;;13.30;99.90;;;;;;5087654;28;20044;-61
2022/06/16 03:43:34;;;;;;;7.07;3.38;;;13.20;99.90;;;;;;5087685;28;20066;-60
2022/06/16 03:45:59;;;;;;;;;;;13.30;99.90;;;;;;5085622;28;20692;-61
2022/06/16 03:48:25;;;;;;;7.35;3.95;;;13.30;99.90;;;;;;5086602;28;19920;-61
2022/06/16 03:50:50;;;;;;;;;;;13.30;99.90;;;;;;5088303;28;20719;-61
2022/06/16 03:53:16;;;;;;;6.78;3.35;;;13.30;99.90;;;;;;5088739;28;20371;-61
2022/06/16 03:55:42;;;;;;;7.28;3.70;;;13.20;99.90;;;;;;5083538;28;20055;-61
2022/06/16 03:58:08;;;;;;;;;;;13.20;99.90;;;;;;5074503;28;20040;-61
2022/06/16 04:00:34;;;;;;;8.75;3.58;;;13.30;99.90;;;;;;5088378;28;19920;-61
2022/06/16 04:05:43;;;;;;;5.60;3.30;;;13.30;99.90;;;;;;5090257;28;19920;-61
2022/06/16 04:08:10;;;;;;;;;;;13.30;99.90;;;;;;5091265;28;20411;-61
2022/06/16 04:10:35;;;;;;;8.38;4.05;;;13.30;99.90;;;;;;5089805;28;19920;-62
2022/06/16 04:13:01;;;;;;;;;;;13.40;99.90;;;;;;5090606;28;20040;-62
2022/06/16 04:15:27;;;;;;;8.57;3.72;;;13.30;99.90;;;;;;5089927;28;19919;-61
2022/06/16 04:17:52;;;;;;;;;;;13.30;99.90;;;;;;5091055;28;20044;-61
2022/06/16 04:20:18;;;;;;;8.82;3.55;;;13.30;99.90;;;;;;5091365;28;20011;-61
2022/06/16 04:22:43;;;;;;;;;;;13.30;99.90;;;;;;5087874;28;20575;-61
2022/06/16 04:25:14;;;;;;;6.65;3.78;;;13.30;99.90;;;;;;5088795;28;19931;-62
2022/06/16 04:27:42;;;;;;;6.07;3.88;;;13.30;99.90;;;;;;5090056;28;20044;-61
2022/06/16 04:30:09;;;;;;;6.88;3.53;;;13.30;99.90;;;;;;5076486;28;20044;-60
2022/06/16 04:32:34;;;;;;;6.47;3.67;;;13.30;99.90;;;;;;5089016;28;20510;-61
2022/06/16 04:35:00;;;;;;;;;;;13.30;99.90;;;;;;5088659;28;20040;-61
2022/06/16 04:37:25;;;;;;;9.98;3.78;;;13.40;99.90;;;;;;5089688;28;20012;-61
2022/06/16 04:39:51;;;;;;;;;;;13.40;99.90;;;;;;5090066;28;20081;-61
2022/06/16 04:42:17;;;;;;;4.70;3.55;;;13.50;99.90;;;;;;5082685;28;20409;-61
2022/06/16 04:44:43;;;;;;;;;;;13.50;99.90;;;;;;5083888;28;20451;-61
2022/06/16 04:47:09;;;;;;;6.95;3.83;;;13.40;99.90;;;;;;5080050;28;19924;-61
2022/06/16 04:49:35;;;;;;;;;;;13.40;99.90;;;;;;5079837;28;20997;-61
2022/06/16 04:52:01;;;;;;;5.47;4.07;;;13.40;99.90;;;;;;5079618;28;20291;-62
2022/06/16 04:54:26;;;;;;;10.18;3.60;;;13.40;99.90;;;;;;5075975;28;20052;-62
2022/06/16 04:56:52;;;;;;;;;;;13.30;99.90;;;;;;5078235;28;20166;-60
2022/06/16 04:59:18;;;;;;;8.43;3.80;;;13.40;99.90;;;;;;5074296;28;19920;-61
2022/06/16 05:01:43;;;;;;;;;;;13.40;99.90;;;;;;5078015;28;20040;-60
2022/06/16 05:04:09;;;;;;;6.22;4.10;;;13.40;99.90;;;;;;5077078;28;19916;-60
2022/06/16 05:06:35;;;;;;;;;;;13.50;99.90;;;;;;5080553;28;20036;-61
2022/06/16 05:09:01;;;;;;;5.75;4.03;;;13.50;99.90;;;;;;5081038;28;20010;-61
2022/06/16 05:11:26;;;;;;;;;;;13.50;99.90;;;;;;5088526;28;20040;-61
2022/06/16 05:13:52;;;;;;;6.90;3.60;;;13.60;99.90;;;;;;5088444;28;20594;-61
2022/06/16 05:16:18;;;;;;;;;;;13.60;99.90;;;;;;5088740;28;20075;-62
2022/06/16 05:18:43;;;;;;;6.35;4.18;;;13.70;99.90;;;;;;5088103;28;19931;-60
2022/06/16 05:21:10;;;;;;;;;;;13.80;99.90;;;;;;5088017;28;20113;-61
2022/06/16 05:23:36;;;;;;;6.57;4.28;;;14.00;99.90;;;;;;5088231;28;19927;-63
2022/06/16 05:26:02;;;;;;;;;;;14.10;99.90;;;;;;5088470;28;20044;-62
2022/06/16 05:28:28;;;;;;;8.57;5.23;;;14.20;99.90;;;;;;5083462;28;20055;-64
2022/06/16 05:30:54;;;;;;;;;;;14.30;99.90;;;;;;5086215;28;20127;-63
2022/06/16 05:33:20;;;;;;;10.52;5.25;;;14.50;99.90;;;;;;5088156;28;19951;-62
2022/06/16 05:35:54;;;;;;;;;;;15.00;99.90;;;;;;5088842;28;20097;-63
2022/06/16 05:38:20;;;;;;;11.48;5.32;;;14.80;99.90;;;;;;5067701;28;20364;-63
2022/06/16 05:40:45;;;;;;;;;;;14.90;99.90;;;;;;5067173;28;20051;-61
2022/06/16 05:43:11;;;;;;;9.30;5.15;;;14.90;99.90;;;;;;5086959;28;19919;-63
2022/06/16 05:45:36;;;;;;;;;;;14.80;99.90;;;;;;5087948;28;20147;-63
2022/06/16 05:48:02;;;;;;;8.10;5.13;;;14.80;99.90;;;;;;5086068;28;20014;-62
2022/06/16 05:50:27;;;;;;;;;;;14.90;99.90;;;;;;5083230;28;20408;-62
2022/06/16 05:52:53;;;;;;;9.88;4.75;;;14.80;99.90;;;;;;5087718;28;19966;-60
2022/06/16 05:55:18;;;;;;;;;;;14.80;99.90;;;;;;5087699;28;20354;-60
2022/06/16 05:57:44;;;;;;;6.70;4.20;;;14.90;99.90;;;;;;5087800;28;19916;-61
2022/06/16 06:00:10;;;;;;;;;;;15.10;99.90;;;;;;5086500;28;20032;-53
2022/06/16 06:02:36;;;;;;;9.52;4.93;;;15.20;99.90;;;;;;5079098;28;20728;-61
2022/06/16 06:05:02;;;;;;;;;;;15.20;99.90;;;;;;5085975;28;20103;-61
2022/06/16 06:16:25;;;;;;;9.88;5.15;;;15.40;99.90;;;;;;5078468;28;19927;-61
2022/06/16 06:18:26;;;;;;;7.03;3.00;;;16.50;99.90;;;;;;5088963;28;20044;-62
2022/06/16 06:20:52;;;;;;;7.60;3.38;;;18.70;95.60;;;;;;5088194;28;20052;-62
2022/06/16 06:23:18;;;;;;;;;;;19.50;93.20;;;;;;5086752;28;20081;-61
2022/06/16 06:25:43;;;;;;;4.93;3.22;;;19.30;92.90;;;;;;5087117;28;20330;-61
2022/06/16 06:28:11;;;;;;;;;;;19.00;93.50;;;;;;5087884;28;20492;-61
2022/06/16 06:30:36;;;;;;;6.47;3.35;;;18.30;93.90;;;;;;5082153;28;20006;-61
2022/06/16 06:33:04;;;;;;;;;;;18.20;94.60;;;;;;5087039;28;20150;-61
2022/06/16 06:35:30;;;;;;;12.38;3.22;;;18.40;93.70;;;;;;5086838;28;20344;-61
2022/06/16 06:37:55;;;;;;;;;;;18.40;94.00;;;;;;5087376;28;20321;-61
2022/06/16 06:40:25;;;;;;;7.45;3.28;;;18.10;94.30;;;;;;5086997;28;19920;-61
2022/06/16 06:42:51;;;;;;;8.38;3.10;;;17.80;94.40;;;;;;5086389;28;20068;-61
2022/06/16 06:45:17;;;;;;;;;;;17.70;94.10;;;;;;5087055;28;20075;-61
2022/06/16 06:47:43;;;;;;;12.35;3.40;;;17.90;94.30;;;;;;5086228;28;20020;-60
2022/06/16 06:50:13;;;;;;;;;;;18.00;93.30;;;;;;5086826;28;20141;-61
2022/06/16 06:52:39;;;;;;;6.03;2.90;;;18.20;94.30;;;;;;5086551;28;20336;-61
2022/06/16 06:55:04;;;;;;;;;;;18.60;93.20;;;;;;5084230;28;20111;-62
2022/06/16 06:57:30;;;;;;;9.52;3.53;;;19.30;91.90;;;;;;5069834;28;19916;-60
2022/06/16 06:59:56;;;;;;;6.82;2.85;;;19.60;91.20;;;;;;5085344;28;20158;-60
2022/06/16 07:02:21;;;;;;;;;;;19.90;90.00;;;;;;5085495;28;20071;-61
2022/06/16 07:04:48;;;;;;;12.82;4.00;;;19.70;89.70;;;;;;5086541;28;19926;-61
2022/06/16 07:07:19;;;;;;;6.25;2.85;;;19.20;91.10;;;;;;5086255;28;20040;-60
2022/06/16 07:09:44;;;;;;;10.95;3.05;;;18.70;91.80;;;;;;5066856;28;20044;-61
2022/06/16 07:12:13;;;;;;;;;;;18.50;91.70;;;;;;5066011;28;20050;-61
2022/06/16 07:14:43;;;;;;;6.10;3.30;;;18.40;92.10;;;;;;5084561;28;20464;-61
2022/06/16 07:17:09;;;;;;;7.05;3.05;;;18.10;93.00;;;;;;5086442;28;20097;-61
2022/06/16 07:19:36;;;;;;;8.85;3.40;;;18.10;93.40;;;;;;5085788;28;20036;-63
2022/06/16 07:22:06;;;;;;;9.60;3.42;;;18.20;92.90;;;;;;5086765;28;20063;-62
2022/06/16 07:24:32;;;;;;;7.32;3.90;;;19.20;91.60;;;;;;5086630;28;20067;-61
2022/06/16 07:26:58;;;;;;;;;;;19.30;89.70;;;;;;5087205;28;20480;-61
2022/06/16 07:29:24;;;;;;;9.95;3.60;;;19.30;90.40;;;;;;5085940;28;20392;-61
2022/06/16 07:31:49;;;;;;;11.73;3.67;;;19.20;91.00;;;;;;5089418;28;20060;-61
2022/06/16 07:34:15;;;;;;;8.18;4.10;;;19.20;91.50;;;;;;5087432;28;20035;-61
2022/06/16 07:36:41;;;;;;;9.40;3.85;;;19.10;90.80;;;;;;5086718;28;20093;-61
2022/06/16 07:39:08;;;;;;;14.85;4.82;;;19.20;91.30;;;;;;5090404;28;20044;-61
2022/06/16 07:41:34;;;;;;;5.53;3.20;;;19.00;91.30;;;;;;5088472;28;20514;-61
2022/06/16 07:44:02;;;;;;;9.88;3.17;;;19.00;92.60;;;;;;5090293;28;20039;-61
2022/06/16 07:46:28;;;;;;;16.95;4.10;;;18.90;91.50;;;;;;5090477;28;20774;-61
2022/06/16 07:48:53;;;;;;;;;;;18.50;92.60;;;;;;5090623;28;20036;-61
2022/06/16 07:51:19;;;;;;;8.02;3.70;;;18.50;92.50;;;;;;5090049;28;19922;-61
2022/06/16 07:53:46;;;;;;;10.05;4.07;;;18.40;92.70;;;;;;5089777;28;20568;-61
2022/06/16 07:56:11;;;;;;;11.80;4.28;;;18.40;92.60;;;;;;5077259;28;20037;-61
2022/06/16 07:58:39;;;;;;;;;;;18.40;93.70;;;;;;5087635;28;20067;-61
2022/06/16 08:01:07;;;;;;;7.95;3.92;;;18.50;92.80;;;;;;5088443;28;19920;-61
2022/06/16 08:03:33;;;;;;;12.20;5.40;;;18.40;91.90;;;;;;5089194;28;20051;-60
2022/06/16 08:06:02;;;;;;;6.97;3.58;;;18.10;92.50;;;;;;5088726;28;20407;-61
2022/06/16 08:08:28;;;;;;;9.30;4.63;;;18.10;92.60;;;;;;5089179;28;20078;-61
2022/06/16 08:10:54;;;;;;;;;;;18.80;92.10;;;;;;5089462;28;20075;-61
2022/06/16 08:13:21;;;;;;;6.53;3.88;;;19.70;90.20;;;;;;5089334;28;19916;-61
2022/06/16 08:15:48;;;;;;;9.13;4.32;;;20.10;87.50;;;;;;5091158;28;20086;-61
2022/06/16 08:18:17;;;;;;;7.35;3.60;;;20.30;88.80;;;;;;5089847;28;20085;-61
2022/06/16 08:20:44;;;;;;;8.05;3.85;;;20.20;89.40;;;;;;5089667;28;20082;-61
2022/06/16 08:23:10;;;;;;;11.90;4.30;;;19.90;89.30;;;;;;5087275;28;20085;-61
2022/06/16 08:25:37;;;;;;;7.90;3.40;;;19.60;88.30;;;;;;5089106;28;20043;-61
2022/06/16 08:28:04;;;;;;;11.85;4.10;;;19.40;90.60;;;;;;5089788;28;20039;-61
2022/06/16 08:30:31;;;;;;;7.55;4.40;;;19.10;90.90;;;;;;5083985;28;20036;-61
2022/06/16 08:32:58;;;;;;;9.40;3.80;;;18.80;90.40;;;;;;5089787;28;20046;-61
2022/06/16 08:35:25;;;;;;;7.22;3.70;;;18.80;90.90;;;;;;5086547;28;20048;-60
2022/06/16 08:37:51;;;;;;;5.63;3.78;;;19.20;90.20;;;;;;5072545;28;20051;-60
2022/06/16 08:40:18;;;;;;;8.95;4.10;;;19.70;89.30;;;;;;5089011;28;20032;-60
2022/06/16 08:42:54;;;;;;;8.48;4.18;;;20.10;85.80;;;;;;5088997;28;20126;-60
2022/06/16 08:45:37;;;;;;;9.63;4.05;;;20.90;84.10;;;;;;5089004;28;20036;-61
2022/06/16 08:48:48;;;;;;;7.32;3.47;;;21.60;81.30;;;;;;5088113;28;20051;-62
2022/06/16 08:51:51;;;;;;;5.40;2.90;;;22.50;80.40;;;;;;5086011;28;20567;-61
2022/06/16 08:54:38;;;;;;;5.93;3.03;;;23.00;77.90;;;;;;5089663;28;20807;-61
2022/06/16 08:57:20;;;;;;;5.82;2.83;;;22.50;79.10;;;;;;5089967;28;20051;-61
2022/06/16 09:00:07;;;;;;;11.30;4.05;;;22.00;82.60;;;;;;5084781;28;20043;-61
2022/06/16 09:02:36;;;;;;;11.35;3.83;;;20.80;83.70;;;;;;5088272;28;20051;-61
2022/06/16 09:05:10;;;;;;;8.10;4.07;;;20.10;85.90;;;;;;5089150;28;20036;-57
2022/06/16 09:07:47;;;;;;;6.15;4.07;;;20.00;86.50;;;;;;5089028;28;20083;-59
2022/06/16 09:10:24;;;;;;;6.22;3.70;;;19.80;88.40;;;;;;5089158;28;20500;-61
2022/06/16 09:13:21;;;;;;;7.55;3.42;;;19.80;87.60;;;;;;5088968;28;20036;-60
2022/06/16 09:16:13;;;;;;;7.10;3.37;;;19.70;86.80;;;;;;5088690;28;20040;-59
2022/06/16 09:18:50;;;;;;;7.18;3.53;;;19.90;90.50;;;;;;5088652;28;20381;-59
2022/06/16 09:21:32;;;;;;;8.35;4.35;;;20.00;86.80;;;;;;5087889;28;20102;-58
2022/06/16 09:24:27;;;;;;;4.72;2.90;;;19.70;85.60;;;;;;5088671;28;20071;-59
2022/06/16 09:26:57;;;;;;;11.77;3.60;;;19.40;85.20;;;;;;5088651;28;20083;-58
2022/06/16 09:30:01;;;;;;;6.07;3.15;;;19.60;83.70;;;;;;5084074;28;20110;-60
2022/06/16 09:32:36;;;;;;;5.53;3.25;;;19.60;83.20;;;;;;5070311;28;20048;-59
2022/06/16 09:35:09;;;;;;;8.85;3.70;;;19.60;80.70;;;;;;5087954;28;20036;-59
2022/06/16 09:38:09;;;;;;;7.00;3.60;;;19.50;86.30;;;;;;5087726;28;20527;-60
2022/06/16 09:40:40;;;;;;;7.82;3.65;;;19.40;85.70;;;;;;5031452;28;20052;-60
2022/06/16 09:43:19;;;;;;;5.28;2.67;;;19.10;84.60;;;;;;5067404;28;20064;-59
2022/06/16 09:46:27;;;;;;;14.60;4.68;;;19.10;82.30;;;;;;5073831;28;20044;-60
2022/06/16 09:49:10;;;;;;;7.45;4.20;;;18.90;84.00;;;;;;5074811;28;20044;-60
2022/06/16 09:51:55;;;;;;;7.68;3.70;;;19.00;86.10;;;;;;5086718;28;20579;-59
2022/06/16 09:54:30;;;;;;;10.15;3.53;;;19.00;87.00;;;;;;5088530;28;20119;-58
2022/06/16 09:57:01;;;;;;;9.38;3.47;;;19.40;87.80;;;;;;5084316;28;20116;-59
2022/06/16 09:59:46;;;;;;;6.28;3.15;;;19.50;85.20;;;;;;5083468;28;20063;-61
2022/06/16 10:02:33;;;;;;;7.28;3.33;;;19.40;85.10;;;;;;5081382;28;20441;-60
2022/06/16 10:04:59;;;;;;;5.18;3.30;;;19.30;83.20;;;;;;5086424;28;20032;-59
2022/06/16 10:07:25;;;;;;;;;;;19.20;85.20;;;;;;5088070;28;20043;-59
2022/06/16 10:10:18;;;;;;;8.45;3.55;;;19.30;83.50;;;;;;5087826;28;19916;-60
2022/06/16 10:13:16;;;;;;;5.22;2.60;;;19.20;84.60;;;;;;5087826;28;20071;-61
2022/06/16 10:16:09;;;;;;;5.78;2.80;;;19.10;84.80;;;;;;5087264;28;20403;-60
2022/06/16 10:18:35;;;;;;;6.15;2.97;;;19.20;84.90;;;;;;5086960;28;20035;-60
2022/06/16 10:21:02;;;;;;;;;;;19.20;84.30;;;;;;5087122;28;20039;-61
2022/06/16 10:23:31;;;;;;;4.15;1.92;;;19.30;83.80;;;;;;5087239;28;19923;-61
2022/06/16 10:26:01;;;;;;;6.28;2.72;;;19.50;82.80;;;;;;5085527;28;20264;-61
2022/06/16 10:28:30;;;;;;;4.20;2.60;;;19.40;86.00;;;;;;5085578;28;20040;-60
2022/06/16 10:30:58;;;;;;;8.93;2.63;;;19.50;83.00;;;;;;5086041;28;20484;-60
2022/06/16 10:33:25;;;;;;;4.30;2.50;;;19.60;84.10;;;;;;5086677;28;20133;-60
2022/06/16 10:36:13;;;;;;;4.45;2.10;;;19.60;83.90;;;;;;5087310;28;20036;-62
2022/06/16 10:39:00;;;;;;;3.78;1.98;;;19.80;83.10;;;;;;5086295;28;20596;-60
2022/06/16 10:41:30;;;;;;;3.17;1.88;;;19.80;82.70;;;;;;5054691;28;20075;-61
2022/06/16 10:43:58;;;;;;;4.05;2.03;;;20.00;82.20;;;;;;5085345;28;20554;-61
2022/06/16 10:46:31;;;;;;;10.40;2.55;;;19.90;82.20;;;;;;5086449;28;20036;-61
2022/06/16 10:49:00;;;;;;;5.25;2.08;;;19.60;82.20;;;;;;5087108;28;20036;-61
2022/06/16 10:51:29;;;;;;;4.57;1.85;;;19.70;84.60;;;;;;5086818;28;20107;-61
2022/06/16 10:54:29;;;;;;;4.05;1.50;;;20.10;83.60;;;;;;5087102;28;20040;-62
2022/06/16 10:57:25;;;;;;;7.00;2.20;;;20.10;76.30;;;;;;5075393;28;20104;-62
2022/06/16 11:00:12;;;;;;;6.85;2.30;;;19.90;78.50;;;;;;5082155;28;20044;-62
2022/06/16 11:02:51;;;;;;;;;;;19.90;80.80;;;;;;5085037;28;20076;-61
2022/06/16 11:05:17;;;;;;;9.35;2.45;;;19.80;81.90;;;;;;5085373;28;20019;-61
2022/06/16 11:07:44;;;;;;;2.88;1.60;;;19.80;82.70;;;;;;5085948;28;20047;-61
2022/06/16 11:10:15;;;;;;;6.03;1.65;;;19.90;80.10;;;;;;5086782;28;20040;-61
2022/06/16 11:12:46;;;;;;;3.63;1.50;;;19.80;77.40;;;;;;5085988;28;20115;-62
2022/06/16 11:15:27;;;;;;;4.05;1.55;;;19.80;78.20;;;;;;5086588;28;20579;-60
2022/06/16 11:18:06;;;;;;;2.45;1.52;;;20.00;81.20;;;;;;5086768;28;20121;-61
2022/06/16 11:20:41;;;;;;;6.25;2.00;;;20.10;80.20;;;;;;5086205;28;20051;-61
2022/06/16 11:23:29;;;;;;;4.80;2.28;;;20.10;78.50;;;;;;5086721;28;20047;-61
2022/06/16 11:26:17;;;;;;;4.93;1.60;;;20.10;81.00;;;;;;5087198;28;20917;-62
2022/06/16 11:28:45;;;;;;;4.13;1.58;;;20.30;76.80;;;;;;5072257;28;20036;-60
2022/06/16 11:31:37;;;;;;;2.22;1.45;;;20.30;76.90;;;;;;5078268;28;20040;-60
2022/06/16 11:34:17;;;;;;;4.40;1.92;;;20.30;73.80;;;;;;5077545;28;20431;-59
2022/06/16 11:37:07;;;;;;;7.82;2.50;;;20.20;74.60;;;;;;5065518;28;20048;-61
2022/06/16 11:39:53;;;;;;;3.40;1.80;;;20.10;75.50;;;;;;5065716;28;20551;-61
2022/06/16 11:42:42;;;;;;;3.27;1.60;;;20.00;74.80;;;;;;5069520;28;20043;-61
2022/06/16 11:45:36;;;;;;;3.58;1.90;;;19.90;73.20;;;;;;5085700;28;20047;-61
2022/06/16 11:48:20;;;;;;;3.33;1.30;;;20.10;74.70;;;;;;5085796;28;20048;-59
2022/06/16 11:51:17;;;;;;;5.40;2.00;;;20.20;75.40;;;;;;5085639;28;20036;-58
2022/06/16 11:53:51;;;;;;;4.75;1.58;;;20.30;72.50;;;;;;5048617;28;20052;-59
2022/06/16 11:56:47;;;;;;;3.40;1.25;;;20.30;76.00;;;;;;5077625;28;20109;-59
2022/06/16 11:59:24;;;;;;;1.83;1.00;;;20.30;77.40;;;;;;5081447;28;20040;-61
2022/06/16 12:02:25;;;;;;;2.75;1.55;;;20.50;73.00;;;;;;5085118;28;20072;-57
2022/06/16 12:05:08;;;;;;;4.93;0.93;;;20.60;74.10;;;;;;5075735;28;20134;-51
2022/06/16 12:08:12;;;;;;;5.57;1.02;;;20.80;72.30;;;;;;5082184;28;20432;-56
2022/06/16 12:10:45;;;;;;;3.30;1.00;;;20.90;71.30;;;;;;5086065;28;20662;-59
2022/06/16 12:13:22;;;;;;;5.25;1.33;;;20.80;69.10;;;;;;5085654;28;20097;-61
2022/06/16 12:16:01;;;;;;;12.05;1.17;;;21.00;70.90;;;;;;5089908;28;20044;-59
2022/06/16 12:18:44;;;;;;;3.90;1.10;;;20.90;70.80;;;;;;5089678;28;20051;-61
2022/06/16 12:21:29;;;;;;;2.45;0.82;;;20.70;68.90;;;;;;5088960;28;20042;-60
2022/06/16 12:24:25;;;;;;;5.18;1.08;;;21.10;68.90;;;;;;5089080;28;20039;-60
2022/06/16 12:27:05;;;;;;;1.52;0.93;;;21.00;67.20;;;;;;5088813;28;20046;-59
2022/06/16 12:29:30;;;;;;;3.03;0.70;;;20.70;68.50;;;;;;5084180;28;20048;-62
2022/06/16 12:32:12;;;;;;;;;;;20.80;70.00;;;;;;5087849;28;20051;-60
2022/06/16 12:34:46;;;;;;;2.67;0.70;;;20.90;68.30;;;;;;5088641;28;19920;-59
2022/06/16 12:37:17;;;;;;;2.47;0.77;;;21.10;69.50;;;;;;5081711;28;20067;-61
2022/06/16 12:39:54;;;;;;;2.90;1.02;;;20.90;68.40;;;;;;5089320;28;20047;-61
2022/06/16 12:42:24;;;;;;;8.57;1.08;;;20.50;70.30;;;;;;5088761;28;20075;-61
2022/06/16 12:45:04;;;;;;;3.53;0.90;;;20.50;70.00;;;;;;5089327;28;20127;-60
2022/06/16 12:47:47;;;;;;;2.13;1.00;;;20.50;70.10;;;;;;5089320;28;20044;-60
2022/06/16 12:50:21;;;;;;;1.63;0.77;;;20.50;68.20;;;;;;5088819;28;20040;-61
2022/06/16 12:52:59;;;;;;;2.15;0.68;;;20.60;68.40;;;;;;5089029;28;20090;-60
2022/06/16 12:55:43;;;;;;;3.45;0.75;;;21.00;69.50;;;;;;5082901;28;20404;-61
2022/06/16 12:58:41;;;;;;;1.52;0.70;;;20.80;64.90;;;;;;5068509;28;20071;-61
2022/06/16 13:01:08;;;;;;;2.05;0.90;;;20.70;67.50;;;;;;5053409;28;20725;-60
2022/06/16 13:03:43;;;;;;;2.15;0.80;;;20.90;67.60;;;;;;5088219;28;20047;-61
2022/06/16 13:06:11;;;;;;;2.83;0.80;;;20.80;67.40;;;;;;5088698;28;20550;-58
2022/06/16 13:08:43;;;;;;;3.45;0.60;;;20.90;68.00;;;;;;5088322;28;20086;-60
2022/06/16 13:11:20;;;;;;;7.32;0.60;;;21.00;64.10;;;;;;5087989;28;20044;-60
2022/06/16 13:13:54;;;;;;;4.68;0.85;;;20.70;61.00;;;;;;5088611;28;20085;-59
2022/06/16 13:16:25;;;;;;;3.03;0.68;;;20.60;63.00;;;;;;5088132;28;20043;-60
2022/06/16 13:19:06;;;;;;;2.58;0.70;;;20.60;64.80;;;;;;5088098;28;20468;-60
2022/06/16 13:21:48;;;;;;;1.25;0.60;;;20.70;64.40;;;;;;5087903;28;20051;-59
2022/06/16 13:24:22;;;;;;;3.28;0.68;;;20.70;64.80;;;;;;5087768;28;20039;-60
2022/06/16 13:27:11;;;;;;;4.95;0.70;;;20.80;63.40;;;;;;5088187;28;20079;-59
2022/06/16 13:30:20;;;;;;;2.70;0.90;;;21.00;64.90;;;;;;5083530;28;20048;-59
2022/06/16 13:32:48;;;;;;;3.50;1.20;;;20.80;65.30;;;;;;5068663;28;20504;-56
2022/06/16 13:35:14;;;;;;;2.78;0.75;;;20.70;66.80;;;;;;5087995;28;20031;-59
2022/06/16 13:37:46;;;;;;;1.92;1.08;;;20.70;67.20;;;;;;5087830;28;20052;-61
2022/06/16 13:40:22;;;;;;;1.20;0.63;;;20.80;67.90;;;;;;5088129;28;20040;-60
2022/06/16 13:42:56;;;;;;;2.55;0.90;;;20.70;69.50;;;;;;5087981;28;20134;-60
2022/06/16 13:45:28;;;;;;;5.65;1.45;;;20.70;68.00;;;;;;5087351;28;20050;-59
2022/06/16 13:48:06;;;;;;;8.35;1.45;;;20.60;69.60;;;;;;5087792;28;20039;-60
2022/06/16 13:50:53;;;;;;;3.80;0.85;;;20.50;69.40;;;;;;5087394;28;20036;-59